Time;durP1;ratioP1;P1;durP2;ratioP2;P2;SDS_P1;SDS_P2;PMS_P1;PMS_P2;Temp;Humidity;BMP_temperature;BMP_pressure;BME280_temperature;BME280_humidity;BME280_pressure;Samples;Min_cycle;Max_cycle;Signal;HPM_P1;HPM_P2
2023/06/17 00:01:29;;;;;;;1999.90;999.90;;;;;;;16.65;100.00;95306.13;5067408;28;20194;-67
2023/06/17 00:03:55;;;;;;;1999.90;999.90;;;;;;;16.55;100.00;95301.72;5066528;28;20170;-68
2023/06/17 00:06:20;;;;;;;1999.90;999.90;;;;;;;16.49;100.00;95300.75;5066823;28;20170;-67
2023/06/17 00:08:45;;;;;;;1999.90;999.90;;;;;;;16.46;100.00;95307.16;5067103;28;20170;-66
2023/06/17 00:11:11;;;;;;;1999.90;999.90;;;;;;;16.36;100.00;95307.00;5066671;28;20173;-67
2023/06/17 00:13:37;;;;;;;1999.90;999.90;;;;;;;16.35;100.00;95305.47;5066627;28;20194;-71
2023/06/17 00:16:04;;;;;;;1999.90;999.90;;;;;;;16.33;100.00;95299.63;5066518;28;20214;-67
2023/06/17 00:18:32;;;;;;;1999.90;999.90;;;;;;;16.34;100.00;95301.19;5067053;28;20166;-67
2023/06/17 00:20:58;;;;;;;1999.90;999.90;;;;;;;16.29;100.00;95301.72;5066503;28;20176;-67
2023/06/17 00:23:23;;;;;;;1999.90;999.90;;;;;;;16.22;100.00;95301.94;5066424;28;20170;-67
2023/06/17 00:25:49;;;;;;;1999.90;999.90;;;;;;;16.19;100.00;95294.56;5066473;28;20174;-67
2023/06/17 00:28:15;;;;;;;1999.90;999.90;;;;;;;16.08;100.00;95287.84;5066417;28;20369;-67
2023/06/17 00:30:41;;;;;;;1999.90;999.90;;;;;;;16.10;100.00;95290.94;5066292;28;20193;-67
2023/06/17 00:33:06;;;;;;;1999.90;999.90;;;;;;;16.10;100.00;95291.69;5066836;28;20177;-67
2023/06/17 00:35:33;;;;;;;1999.90;999.90;;;;;;;16.02;100.00;95284.88;5066733;28;20182;-67
2023/06/17 00:37:59;;;;;;;1999.90;999.90;;;;;;;16.01;100.00;95286.09;5066699;28;20169;-68
2023/06/17 00:40:25;;;;;;;1999.90;999.90;;;;;;;15.99;100.00;95282.97;5066759;28;20196;-67
2023/06/17 00:42:51;;;;;;;1999.90;999.90;;;;;;;15.91;100.00;95276.16;5066718;28;20205;-67
2023/06/17 00:45:16;;;;;;;1999.90;999.90;;;;;;;15.88;100.00;95271.53;5066184;28;20174;-68
2023/06/17 00:47:42;;;;;;;1999.90;999.90;;;;;;;15.82;100.00;95273.31;5065959;28;20166;-68
2023/06/17 00:50:09;;;;;;;1999.90;999.90;;;;;;;15.77;100.00;95276.59;5065928;28;20220;-67
2023/06/17 00:52:36;;;;;;;1999.90;999.90;;;;;;;15.77;100.00;95273.06;5065992;28;20181;-67
2023/06/17 00:55:02;;;;;;;1999.90;999.90;;;;;;;15.76;100.00;95280.56;5065933;28;20292;-67
2023/06/17 00:57:28;;;;;;;1999.90;999.90;;;;;;;15.72;100.00;95274.38;5065577;28;20170;-67
2023/06/17 00:59:54;;;;;;;1999.90;999.90;;;;;;;15.67;100.00;95277.66;5066356;28;20170;-67
2023/06/17 01:02:19;;;;;;;1999.90;999.90;;;;;;;15.60;100.00;95282.63;5065613;28;20194;-67
2023/06/17 01:04:48;;;;;;;1999.90;999.90;;;;;;;15.57;100.00;95283.50;5065699;28;20170;-68
2023/06/17 01:07:23;;;;;;;1999.90;999.90;;;;;;;15.56;100.00;95282.72;5065701;28;20170;-68
2023/06/17 01:09:55;;;;;;;1999.90;999.90;;;;;;;15.53;100.00;95286.38;5065350;28;20169;-67
2023/06/17 01:12:27;;;;;;;1999.90;999.90;;;;;;;15.50;100.00;95284.47;5066012;28;20162;-67
2023/06/17 01:14:55;;;;;;;1999.90;999.90;;;;;;;15.46;100.00;95285.78;5065423;28;20189;-68
2023/06/17 01:17:21;;;;;;;1999.90;999.90;;;;;;;15.42;100.00;95277.63;5065391;28;20221;-68
2023/06/17 01:19:48;;;;;;;1999.90;999.90;;;;;;;15.42;100.00;95277.63;5065972;28;20189;-67
2023/06/17 01:22:16;;;;;;;1999.90;999.90;;;;;;;15.39;100.00;95284.00;5065833;28;20197;-67
2023/06/17 01:24:43;;;;;;;1999.90;999.90;;;;;;;15.37;100.00;95280.16;5065886;28;20166;-68
2023/06/17 01:27:08;;;;;;;1999.90;999.90;;;;;;;15.32;100.00;95277.91;5065408;28;20245;-68
2023/06/17 01:29:36;;;;;;;1999.90;999.90;;;;;;;15.25;100.00;95276.13;5065571;28;20169;-68
2023/06/17 01:32:02;;;;;;;1999.90;999.90;;;;;;;15.22;100.00;95285.25;5065808;28;20166;-69
2023/06/17 01:34:58;;;;;;;1999.90;999.90;;;;;;;15.21;100.00;95283.72;5065918;28;20178;-68
2023/06/17 01:37:31;;;;;;;1999.90;999.90;;;;;;;15.18;100.00;95284.56;5065655;28;20170;-68
2023/06/17 01:39:58;;;;;;;1999.90;999.90;;;;;;;15.15;100.00;95282.69;5065627;28;20173;-69
2023/06/17 01:42:34;;;;;;;1999.90;999.90;;;;;;;15.11;100.00;95284.75;5064566;28;20240;-69
2023/06/17 01:45:03;;;;;;;1999.90;999.90;;;;;;;15.08;100.00;95291.13;5064936;28;20173;-69
2023/06/17 01:47:29;;;;;;;1999.90;999.90;;;;;;;15.07;100.00;95284.09;5065381;28;20166;-68
2023/06/17 01:49:58;;;;;;;1999.90;999.90;;;;;;;15.00;100.00;95284.28;5065318;28;20174;-69
2023/06/17 01:52:24;;;;;;;1999.90;999.90;;;;;;;14.96;100.00;95291.84;5064420;28;20231;-69
2023/06/17 01:54:49;;;;;;;1999.90;999.90;;;;;;;14.95;100.00;95287.56;5064687;28;20178;-68
2023/06/17 01:57:14;;;;;;;1999.90;999.90;;;;;;;14.95;100.00;95287.56;5064731;28;20170;-68
2023/06/17 01:59:40;;;;;;;1999.90;999.90;;;;;;;14.90;100.00;95290.84;5064632;28;20192;-69
2023/06/17 02:02:05;;;;;;;1999.90;999.90;;;;;;;14.87;100.00;95290.94;5064600;28;20166;-68
2023/06/17 02:04:30;;;;;;;1999.90;999.90;;;;;;;14.83;100.00;95280.00;5064604;28;20170;-68
2023/06/17 02:06:56;;;;;;;1999.90;999.90;;;;;;;14.82;100.00;95277.72;5064729;28;20174;-68
2023/06/17 02:09:22;;;;;;;1999.90;999.90;;;;;;;14.78;100.00;95283.31;5065160;28;20174;-68
2023/06/17 02:11:47;;;;;;;1999.90;999.90;;;;;;;14.71;100.00;95280.75;5064599;28;20193;-68
2023/06/17 02:14:13;;;;;;;1999.90;999.90;;;;;;;14.73;100.00;95277.56;5064377;28;20194;-68
2023/06/17 02:16:44;;;;;;;1999.90;999.90;;;;;;;14.68;100.00;95280.84;5064728;28;20256;-69
2023/06/17 02:19:09;;;;;;;1999.90;999.90;;;;;;;14.64;100.00;95278.16;5064038;28;20211;-67
2023/06/17 02:21:34;;;;;;;1999.90;999.90;;;;;;;14.59;100.00;95280.66;5064255;28;20236;-68
2023/06/17 02:24:00;;;;;;;1999.90;999.90;;;;;;;14.59;100.00;95275.16;5064866;28;20177;-68
2023/06/17 02:26:25;;;;;;;1999.90;999.90;;;;;;;14.57;100.00;95272.84;5064201;28;20170;-68
2023/06/17 02:28:50;;;;;;;1999.90;999.90;;;;;;;14.60;100.00;95277.50;5064056;28;20246;-68
2023/06/17 02:31:16;;;;;;;1999.90;999.90;;;;;;;14.60;100.00;95274.75;5064070;28;20244;-69
2023/06/17 02:33:41;;;;;;;1999.90;999.90;;;;;;;14.55;100.00;95272.53;5064462;28;20177;-70
2023/06/17 02:36:06;;;;;;;1999.90;999.90;;;;;;;14.54;100.00;95270.22;5064179;28;20181;-70
2023/06/17 02:38:32;;;;;;;1999.90;999.90;;;;;;;14.53;100.00;95271.41;5064254;28;20208;-67
2023/06/17 02:40:58;;;;;;;1999.90;999.90;;;;;;;14.53;100.00;95282.41;5064067;28;20174;-68
2023/06/17 02:43:23;;;;;;;1999.90;999.90;;;;;;;14.51;100.00;95280.09;5064471;28;20170;-67
2023/06/17 02:45:49;;;;;;;1999.90;999.90;;;;;;;14.49;100.00;95277.00;5063941;28;20241;-67
2023/06/17 02:48:14;;;;;;;1999.90;999.90;;;;;;;14.50;100.00;95289.50;5063928;28;20170;-67
2023/06/17 02:50:40;;;;;;;1999.90;999.90;;;;;;;14.47;100.00;95279.41;5063918;28;20173;-71
2023/06/17 02:53:07;;;;;;;1999.90;999.90;;;;;;;14.45;100.00;95281.81;5063524;28;20248;-68
2023/06/17 02:55:33;;;;;;;1999.90;999.90;;;;;;;14.47;100.00;95284.91;5063298;28;20174;-68
2023/06/17 02:57:58;;;;;;;1999.90;999.90;;;;;;;14.45;100.00;95281.81;5064264;28;20178;-69
2023/06/17 03:00:23;;;;;;;1999.90;999.90;;;;;;;14.43;100.00;95295.22;5064121;28;20170;-68
2023/06/17 03:02:49;;;;;;;1999.90;999.90;;;;;;;14.41;100.00;95285.81;5064111;28;20182;-67
2023/06/17 03:05:16;;;;;;;1999.90;999.90;;;;;;;14.39;100.00;95289.00;5064147;28;20174;-68
2023/06/17 03:07:42;;;;;;;1999.90;999.90;;;;;;;14.36;100.00;95291.84;5063737;28;20177;-68
2023/06/17 03:10:08;;;;;;;1999.90;999.90;;;;;;;14.33;100.00;95290.75;5063753;28;20233;-68
2023/06/17 03:12:33;;;;;;;1999.90;999.90;;;;;;;14.34;100.00;95294.25;5063899;28;20198;-68
2023/06/17 03:14:58;;;;;;;1999.90;999.90;;;;;;;14.35;100.00;95293.81;5063553;28;20170;-68
2023/06/17 03:17:24;;;;;;;1999.90;999.90;;;;;;;14.35;100.00;95282.81;5064230;28;20214;-68
2023/06/17 03:19:50;;;;;;;1999.90;999.90;;;;;;;14.34;100.00;95283.25;5063607;28;20173;-68
2023/06/17 03:22:16;;;;;;;1999.90;999.90;;;;;;;14.32;100.00;95283.72;5063586;28;20220;-67
2023/06/17 03:24:42;;;;;;;1999.90;999.90;;;;;;;14.29;100.00;95284.56;5064045;28;20181;-68
2023/06/17 03:27:07;;;;;;;1999.90;999.90;;;;;;;14.31;100.00;95292.38;5063815;28;20174;-68
2023/06/17 03:29:35;;;;;;;1999.90;999.90;;;;;;;14.30;100.00;95283.34;5063623;28;20170;-68
2023/06/17 03:32:00;;;;;;;1999.90;999.90;;;;;;;14.33;100.00;95290.75;5063467;28;20258;-68
2023/06/17 03:34:26;;;;;;;1999.90;999.90;;;;;;;14.38;100.00;95276.47;5064028;28;20174;-68
2023/06/17 03:36:51;;;;;;;1999.90;999.90;;;;;;;14.41;100.00;95275.63;5063999;28;20182;-67
2023/06/17 03:39:16;;;;;;;1999.90;999.90;;;;;;;14.58;100.00;95285.41;5063313;28;20178;-68
2023/06/17 03:41:42;;;;;;;1999.90;999.90;;;;;;;14.75;100.00;95289.66;5063411;28;20252;-68
2023/06/17 03:44:07;;;;;;;1999.90;999.90;;;;;;;14.91;100.00;95286.13;5063449;28;20197;-67
2023/06/17 03:46:33;;;;;;;1999.90;999.90;;;;;;;15.11;100.00;95284.75;5063926;28;20178;-67
2023/06/17 03:48:58;;;;;;;1999.90;999.90;;;;;;;15.35;100.00;95277.84;5063708;28;20181;-67
2023/06/17 03:51:23;;;;;;;1999.90;999.90;;;;;;;15.56;100.00;95282.72;5063304;28;20202;-67
2023/06/17 03:53:49;;;;;;;1999.90;999.90;;;;;;;15.86;100.00;95276.72;5063225;28;20236;-68
2023/06/17 03:56:14;;;;;;;1999.90;999.90;;;;;;;16.05;100.00;95281.25;5063754;28;20178;-67
2023/06/17 03:58:40;;;;;;;1999.90;999.90;;;;;;;16.32;100.00;95287.06;5063784;28;20177;-67
2023/06/17 04:01:07;;;;;;;1999.90;999.90;;;;;;;16.64;100.00;95283.28;5063238;28;20169;-67
2023/06/17 04:03:34;;;;;;;1999.90;999.90;;;;;;;16.76;100.00;95278.97;5063206;28;20170;-67
2023/06/17 04:06:00;;;;;;;1999.90;999.90;;;;;;;17.04;100.00;95289.03;5065705;28;20180;-67
2023/06/17 04:08:27;;;;;;;1999.90;999.90;;;;;;;17.31;100.00;95303.03;5066886;28;20173;-67
2023/06/17 04:10:52;;;;;;;1999.90;999.90;;;;;;;17.45;100.00;95291.53;5067471;28;20170;-69
2023/06/17 04:13:18;;;;;;;1999.90;999.90;;;;;;;17.84;100.00;95290.81;5066968;28;20200;-68
2023/06/17 04:15:45;;;;;;;1999.90;999.90;;;;;;;18.12;100.00;95293.28;5066497;28;20224;-69
2023/06/17 04:18:11;;;;;;;1999.90;999.90;;;;;;;18.16;100.00;95299.47;5066975;28;20174;-68
2023/06/17 04:20:36;;;;;;;1999.90;999.90;;;;;;;18.55;100.00;95295.16;5066696;28;20170;-69
2023/06/17 04:23:02;;;;;;;1999.90;999.90;;;;;;;18.93;100.00;95288.03;5066522;28;20177;-67
2023/06/17 04:25:32;;;;;;;1999.90;999.90;;;;;;;19.09;100.00;95287.72;5067099;28;20181;-67
2023/06/17 04:27:58;;;;;;;1999.90;999.90;;;;;;;19.54;100.00;95289.75;5067210;28;20169;-68
2023/06/17 04:30:25;;;;;;;1999.90;999.90;;;;;;;19.65;100.00;95292.03;5066612;28;20174;-67
2023/06/17 04:32:50;;;;;;;1999.90;999.90;;;;;;;19.92;100.00;95284.44;5067057;28;20205;-67
2023/06/17 04:35:17;;;;;;;1999.90;999.90;;;;;;;20.12;100.00;95292.25;5066400;28;20252;-67
2023/06/17 04:37:43;;;;;;;1999.90;999.90;;;;;;;20.26;100.00;95292.38;5066789;28;20224;-68
2023/06/17 04:40:11;;;;;;;1999.90;999.90;;;;;;;20.40;100.00;95300.00;5066220;28;20174;-68
2023/06/17 04:42:44;;;;;;;1999.90;999.90;;;;;;;20.55;100.00;95298.13;5066326;28;20177;-68
2023/06/17 04:45:10;;;;;;;1999.90;999.90;;;;;;;20.86;100.00;95295.78;5066249;28;20181;-67
2023/06/17 04:47:35;;;;;;;1999.90;999.90;;;;;;;21.28;100.00;95299.22;5066139;28;20170;-67
2023/06/17 04:50:01;;;;;;;1999.90;999.90;;;;;;;21.48;100.00;95285.47;5066496;28;20180;-67
2023/06/17 04:52:29;;;;;;;1999.90;999.90;;;;;;;21.53;100.00;95290.34;5066563;28;20205;-67
2023/06/17 04:54:55;;;;;;;1999.90;999.90;;;;;;;21.62;100.00;95287.50;5066485;28;20236;-69
2023/06/17 04:57:20;;;;;;;1999.90;999.90;;;;;;;21.89;100.00;95292.81;5066033;28;20242;-68
2023/06/17 04:59:46;;;;;;;1999.90;999.90;;;;;;;22.38;100.00;95286.56;5066270;28;20177;-69
2023/06/17 05:02:11;;;;;;;1999.90;999.90;;;;;;;22.29;99.98;95293.00;5066379;28;20170;-68
2023/06/17 05:04:36;;;;;;;1999.90;999.90;;;;;;;22.70;96.77;95293.16;5066329;28;20170;-68
2023/06/17 05:07:02;;;;;;;1999.90;999.90;;;;;;;22.95;96.41;95298.06;5065711;28;20237;-69
2023/06/17 05:09:27;;;;;;;1999.90;999.90;;;;;;;22.99;93.71;95290.25;5066444;28;20178;-68
2023/06/17 05:11:52;;;;;;;1999.90;999.90;;;;;;;23.30;90.22;95294.00;5065783;28;20224;-68
2023/06/17 05:14:18;;;;;;;1999.90;999.90;;;;;;;23.71;87.88;95291.94;5065580;28;20228;-68
2023/06/17 05:16:43;;;;;;;1999.90;999.90;;;;;;;24.15;84.27;95292.41;5064803;28;20222;-69
2023/06/17 05:19:08;;;;;;;1999.90;999.90;;;;;;;24.20;83.38;95302.84;5066124;28;20181;-68
2023/06/17 05:21:34;;;;;;;1999.90;999.90;;;;;;;24.38;82.81;95299.72;5066213;28;20165;-68
2023/06/17 05:24:00;;;;;;;1999.90;999.90;;;;;;;24.87;79.36;95299.31;5065904;28;20195;-68
2023/06/17 05:26:27;;;;;;;1999.90;999.90;;;;;;;25.12;75.75;95302.03;5065957;28;20166;-68
2023/06/17 05:28:52;;;;;;;1999.90;999.90;;;;;;;24.98;75.95;95304.97;5065311;28;20241;-69
2023/06/17 05:31:18;;;;;;;1999.90;999.90;;;;;;;25.36;76.36;95302.41;5065355;28;20190;-68
2023/06/17 05:33:43;;;;;;;1999.90;999.90;;;;;;;25.63;72.67;95306.59;5065283;28;20173;-70
2023/06/17 05:36:09;;;;;;;1999.90;999.90;;;;;;;26.06;69.59;95308.03;5065758;28;20172;-68
2023/06/17 05:38:34;;;;;;;1999.90;999.90;;;;;;;26.42;68.77;95304.25;5064930;28;20226;-68
2023/06/17 05:41:00;;;;;;;1999.90;999.90;;;;;;;26.31;68.22;95309.84;5065151;28;20216;-69
2023/06/17 05:43:26;;;;;;;1999.90;999.90;;;;;;;26.55;66.26;95312.91;5065511;28;20190;-68
2023/06/17 05:45:51;;;;;;;1999.90;999.90;;;;;;;26.83;64.59;95310.88;5065140;28;20166;-69
2023/06/17 05:48:16;;;;;;;1999.90;999.90;;;;;;;27.01;63.42;95310.34;5064881;28;20200;-71
2023/06/17 05:50:42;;;;;;;1999.90;999.90;;;;;;;26.99;62.93;95317.75;5064903;28;20166;-71
2023/06/17 05:53:07;;;;;;;1999.90;999.90;;;;;;;27.09;64.08;95316.97;5064614;28;20189;-69
2023/06/17 05:55:32;;;;;;;1999.90;999.90;;;;;;;27.21;61.94;95318.47;5064823;28;20193;-70
2023/06/17 05:57:58;;;;;;;1999.90;999.90;;;;;;;27.40;61.31;95325.09;5064994;28;20170;-67
2023/06/17 06:00:23;;;;;;;1999.90;999.90;;;;;;;27.84;58.64;95324.16;5064664;28;20173;-69
2023/06/17 06:02:49;;;;;;;1999.90;999.90;;;;;;;28.42;56.34;95319.22;5065327;28;20177;-71
2023/06/17 06:05:15;;;;;;;1999.90;999.90;;;;;;;28.92;53.71;95317.56;5064608;28;20170;-69
2023/06/17 06:07:46;;;;;;;1999.90;999.90;;;;;;;28.79;54.22;95319.44;5065086;28;20172;-71
2023/06/17 06:10:12;;;;;;;1999.90;999.90;;;;;;;28.93;52.86;95319.06;5065085;28;20240;-71
2023/06/17 06:12:38;;;;;;;1999.90;999.90;;;;;;;28.98;51.78;95317.50;5064273;28;20201;-70
2023/06/17 06:15:04;;;;;;;1999.90;999.90;;;;;;;29.17;52.15;95326.81;5064447;28;20192;-69
2023/06/17 06:17:30;;;;;;;1999.90;999.90;;;;;;;29.33;51.16;95325.88;5064158;28;20214;-70
2023/06/17 06:19:55;;;;;;;1999.90;999.90;;;;;;;28.87;53.16;95323.25;5064346;28;20200;-71
2023/06/17 06:22:21;;;;;;;1999.90;999.90;;;;;;;29.76;50.32;95326.69;5064786;28;20193;-70
2023/06/17 06:24:46;;;;;;;1999.90;999.90;;;;;;;30.31;48.79;95328.78;5064348;28;20174;-71
2023/06/17 06:27:11;;;;;;;1999.90;999.90;;;;;;;31.31;45.58;95323.06;5064255;28;20248;-69
2023/06/17 06:29:37;;;;;;;1999.90;999.90;;;;;;;31.00;44.68;95333.06;5064772;28;20194;-65
2023/06/17 06:32:03;;;;;;;1999.90;999.90;;;;;;;31.14;51.93;95325.41;5064221;28;20197;-65
2023/06/17 06:34:31;;;;;;;1999.90;999.90;;;;;;;30.73;49.45;95345.59;5064256;28;20208;-65
2023/06/17 06:36:58;;;;;;;1999.90;999.90;;;;;;;30.64;48.07;95333.94;5064304;28;20177;-65
2023/06/17 06:39:24;;;;;;;1999.90;999.90;;;;;;;31.13;47.12;95335.94;5063987;28;20284;-65
2023/06/17 06:41:49;;;;;;;1999.90;999.90;;;;;;;30.94;46.10;95334.47;5063985;28;20178;-65
2023/06/17 06:44:14;;;;;;;1999.90;999.90;;;;;;;30.88;46.92;95343.03;5064069;28;20173;-65
2023/06/17 06:46:40;;;;;;;1999.90;999.90;;;;;;;31.28;44.51;95340.34;5064144;28;20169;-65
2023/06/17 06:49:05;;;;;;;1999.90;999.90;;;;;;;31.21;45.33;95341.72;5063901;28;20215;-65
2023/06/17 06:51:32;;;;;;;1999.90;999.90;;;;;;;31.13;46.04;95338.75;5064340;28;20194;-65
2023/06/17 06:53:58;;;;;;;1999.90;999.90;;;;;;;31.72;44.90;95345.16;5063884;28;20166;-65
2023/06/17 06:56:24;;;;;;;1999.90;999.90;;;;;;;31.46;45.04;95340.25;5063818;28;20170;-65
2023/06/17 06:58:49;;;;;;;1999.90;999.90;;;;;;;31.84;42.82;95344.41;5063626;28;20201;-66
2023/06/17 07:01:15;;;;;;;1999.90;999.90;;;;;;;32.15;42.53;95348.41;5063786;28;20173;-65
2023/06/17 07:03:41;;;;;;;1999.90;999.90;;;;;;;32.48;41.01;95342.78;5064312;28;20169;-65
2023/06/17 07:06:07;;;;;;;1999.90;999.90;;;;;;;32.42;40.76;95344.22;5064394;28;20220;-64
2023/06/17 07:08:32;;;;;;;1999.90;999.90;;;;;;;32.98;40.29;95342.38;5063603;28;20197;-65
2023/06/17 07:10:58;;;;;;;1999.90;999.90;;;;;;;32.79;39.76;95344.63;5063799;28;20170;-66
2023/06/17 07:13:23;;;;;;;1999.90;999.90;;;;;;;32.36;39.97;95347.19;5063629;28;20197;-65
2023/06/17 07:15:48;;;;;;;1999.90;999.90;;;;;;;32.62;37.83;95354.81;5063878;28;20166;-65
2023/06/17 07:18:14;;;;;;;1999.90;999.90;;;;;;;32.67;37.54;95351.09;5063806;28;20169;-64
2023/06/17 07:20:39;;;;;;;1999.90;999.90;;;;;;;32.95;38.19;95348.38;5064100;28;20166;-64
2023/06/17 07:23:05;;;;;;;1999.90;999.90;;;;;;;33.66;37.16;95349.38;5063690;28;20166;-64
2023/06/17 07:25:30;;;;;;;1999.90;999.90;;;;;;;34.60;35.89;95348.75;5063321;28;20177;-64
2023/06/17 07:27:59;;;;;;;1999.90;999.90;;;;;;;34.59;35.02;95344.41;5063376;28;20178;-64
2023/06/17 07:30:26;;;;;;;1999.90;999.90;;;;;;;34.61;34.98;95344.56;5063998;28;20173;-64
2023/06/17 07:32:52;;;;;;;1999.90;999.90;;;;;;;34.64;33.97;95346.28;5063451;28;20197;-65
2023/06/17 07:35:17;;;;;;;1999.90;999.90;;;;;;;34.62;33.99;95337.59;5063925;28;20220;-72
2023/06/17 07:37:43;;;;;;;1999.90;999.90;;;;;;;34.13;35.15;95348.34;5064042;28;20166;-63
2023/06/17 07:40:10;;;;;;;1999.90;999.90;;;;;;;34.42;35.31;95353.44;5064320;28;20212;-73
2023/06/17 07:42:37;;;;;;;1999.90;999.90;;;;;;;35.15;33.09;95344.16;5067240;28;20273;-65
2023/06/17 07:45:04;;;;;;;1999.90;999.90;;;;;;;34.47;33.60;95343.22;5067235;28;20200;-66
2023/06/17 07:47:29;;;;;;;1999.90;999.90;;;;;;;34.91;32.07;95339.00;5067284;28;20177;-66
2023/06/17 07:49:55;;;;;;;1999.90;999.90;;;;;;;34.78;32.90;95341.97;5067516;28;20166;-65
2023/06/17 07:52:20;;;;;;;1999.90;999.90;;;;;;;34.91;32.30;95336.16;5067160;28;20262;-66
2023/06/17 07:54:47;;;;;;;1999.90;999.90;;;;;;;34.91;32.09;95341.81;5066970;28;20174;-68
2023/06/17 07:57:13;;;;;;;1999.90;999.90;;;;;;;34.97;31.92;95345.25;5067769;28;20166;-68
2023/06/17 07:59:40;;;;;;;1999.90;999.90;;;;;;;35.71;30.16;95340.91;5067402;28;20253;-67
2023/06/17 08:02:06;;;;;;;1999.90;999.90;;;;;;;36.32;28.97;95337.41;5066825;28;20268;-68
2023/06/17 08:04:32;;;;;;;1999.90;999.90;;;;;;;35.74;29.06;95336.94;5067336;28;20170;-67
2023/06/17 08:06:57;;;;;;;1999.90;999.90;;;;;;;34.95;29.77;95342.25;5066909;28;20193;-65
2023/06/17 08:09:23;;;;;;;1999.90;999.90;;;;;;;35.93;29.43;95337.28;5067220;28;20173;-65
2023/06/17 08:11:48;;;;;;;1999.90;999.90;;;;;;;36.76;28.06;95337.00;5066739;28;20253;-67
2023/06/17 08:14:14;;;;;;;1999.90;999.90;;;;;;;35.70;28.77;95339.41;5067171;28;20194;-70
2023/06/17 08:16:39;;;;;;;1999.90;999.90;;;;;;;36.02;28.39;95328.19;5066691;28;20221;-66
2023/06/17 08:19:05;;;;;;;1999.90;999.90;;;;;;;35.18;28.70;95337.31;5067310;28;20181;-66
2023/06/17 08:21:30;;;;;;;1999.90;999.90;;;;;;;35.85;29.51;95325.19;5067178;28;20196;-65
2023/06/17 08:23:55;;;;;;;1999.90;999.90;;;;;;;36.81;26.86;95336.78;5066501;28;20177;-66
2023/06/17 08:26:21;;;;;;;1999.90;999.90;;;;;;;36.12;28.82;95329.09;5066505;28;20170;-69
2023/06/17 08:28:46;;;;;;;1999.90;999.90;;;;;;;36.91;24.39;95331.97;5067197;28;20176;-68
2023/06/17 08:31:11;;;;;;;1999.90;999.90;;;;;;;36.57;26.37;95326.81;5066953;28;20174;-66
2023/06/17 08:33:37;;;;;;;1999.90;999.90;;;;;;;36.76;25.76;95323.53;5066279;28;20170;-66
2023/06/17 08:36:02;;;;;;;1999.90;999.90;;;;;;;36.76;26.10;95320.69;5066253;28;20256;-66
2023/06/17 08:38:28;;;;;;;1999.90;999.90;;;;;;;36.10;27.47;95318.28;5066130;28;20245;-67
2023/06/17 08:40:53;;;;;;;1999.90;999.90;;;;;;;36.56;26.82;95322.47;5066102;28;20170;-66
2023/06/17 08:43:20;;;;;;;1999.90;999.90;;;;;;;36.09;25.39;95327.41;5066096;28;20202;-68
2023/06/17 08:45:49;;;;;;;1999.90;999.90;;;;;;;35.06;27.34;95319.16;5065822;28;20181;-70
2023/06/17 08:48:15;;;;;;;1999.90;999.90;;;;;;;35.58;26.93;95318.41;5066004;28;20174;-67
2023/06/17 08:50:41;;;;;;;1999.90;999.90;;;;;;;35.70;26.88;95313.81;5066443;28;20174;-67
2023/06/17 08:53:07;;;;;;;1999.90;999.90;;;;;;;34.97;28.51;95309.09;5064491;28;20173;-66
2023/06/17 08:55:33;;;;;;;1999.90;999.90;;;;;;;33.68;29.02;95307.06;5065988;28;20209;-69
2023/06/17 08:57:59;;;;;;;1999.90;999.90;;;;;;;32.67;31.17;95303.75;5065771;28;20173;-75
2023/06/17 09:00:24;;;;;;;1999.90;999.90;;;;;;;33.66;29.96;95306.09;5065805;28;20174;-69
2023/06/17 09:02:51;;;;;;;1999.90;999.90;;;;;;;34.68;28.75;95301.25;5065534;28;20197;-68
2023/06/17 09:05:16;;;;;;;1999.90;999.90;;;;;;;35.42;27.70;95308.34;5065354;28;20174;-65
2023/06/17 09:07:42;;;;;;;1999.90;999.90;;;;;;;35.48;26.60;95306.06;5065668;28;20237;-67
2023/06/17 09:10:09;;;;;;;1999.90;999.90;;;;;;;35.44;26.11;95300.78;5065512;28;20173;-64
2023/06/17 09:12:38;;;;;;;1999.90;999.90;;;;;;;35.67;26.28;95297.88;5065152;28;20169;-63
2023/06/17 09:15:13;;;;;;;1999.90;999.90;;;;;;;35.32;26.68;95308.16;5065568;28;20198;-63
2023/06/17 09:17:39;;;;;;;1999.90;999.90;;;;;;;35.78;26.29;95297.50;5065562;28;20291;-64
2023/06/17 09:20:14;;;;;;;1999.90;999.90;;;;;;;36.74;25.28;95299.81;5065460;28;20173;-65
2023/06/17 09:22:41;;;;;;;1999.90;999.90;;;;;;;35.99;25.04;95301.63;5065404;28;20193;-63
2023/06/17 09:25:12;;;;;;;1999.90;999.90;;;;;;;35.59;25.45;95302.84;5065891;28;20174;-64
2023/06/17 09:27:51;;;;;;;1999.90;999.90;;;;;;;35.52;25.17;95293.00;5065353;28;20181;-64
2023/06/17 09:30:17;;;;;;;1999.90;999.90;;;;;;;34.53;26.29;95295.56;5065882;28;20169;-63
2023/06/17 09:32:44;;;;;;;1999.90;999.90;;;;;;;33.19;27.56;95295.00;5065219;28;20166;-63
2023/06/17 09:35:14;;;;;;;1999.90;999.90;;;;;;;32.61;28.19;95291.81;5064861;28;20197;-64
2023/06/17 09:37:44;;;;;;;1999.90;999.90;;;;;;;33.79;27.74;95286.91;5065128;28;20204;-64
2023/06/17 09:40:11;;;;;;;1999.90;999.90;;;;;;;34.09;27.02;95282.72;5065804;28;20166;-64
2023/06/17 09:42:37;;;;;;;1999.90;999.90;;;;;;;33.25;27.53;95289.19;5064933;28;20201;-63
2023/06/17 09:45:09;;;;;;;1999.90;999.90;;;;;;;32.45;28.23;95297.88;5065569;28;20170;-64
2023/06/17 09:47:37;;;;;;;1999.90;999.90;;;;;;;31.47;28.57;95290.94;5065615;28;20166;-63
2023/06/17 09:50:04;;;;;;;1999.90;999.90;;;;;;;31.29;29.72;95297.44;5065723;28;20189;-64
2023/06/17 09:52:35;;;;;;;1999.90;999.90;;;;;;;30.95;30.42;95293.66;5065257;28;20249;-64
2023/06/17 09:55:02;;;;;;;1999.90;999.90;;;;;;;31.27;29.70;95288.75;5065289;28;20174;-64
2023/06/17 09:57:35;;;;;;;1999.90;999.90;;;;;;;32.30;28.90;95292.75;5064624;28;20232;-64
2023/06/17 10:00:00;;;;;;;1999.90;999.90;;;;;;;31.79;29.12;95276.72;5065227;28;20216;-63
2023/06/17 10:02:27;;;;;;;1999.90;999.90;;;;;;;32.84;29.45;95287.16;5064308;28;20202;-64
2023/06/17 10:04:53;;;;;;;1999.90;999.90;;;;;;;31.82;30.04;95290.50;5064868;28;20181;-63
2023/06/17 10:07:22;;;;;;;1999.90;999.90;;;;;;;31.93;29.83;95292.34;5064977;28;20174;-64
2023/06/17 10:09:47;;;;;;;1999.90;999.90;;;;;;;31.99;29.68;95285.25;5064525;28;20174;-65
2023/06/17 10:12:14;;;;;;;1999.90;999.90;;;;;;;31.35;30.06;95280.41;5064360;28;20177;-63
2023/06/17 10:14:40;;;;;;;1999.90;999.90;;;;;;;29.94;32.33;95278.03;5064920;28;20190;-63
2023/06/17 10:17:09;;;;;;;1999.90;999.90;;;;;;;29.90;32.40;95274.78;5064714;28;20264;-64
2023/06/17 10:19:37;;;;;;;1999.90;999.90;;;;;;;29.99;32.68;95280.00;5064385;28;20208;-63
2023/06/17 10:22:05;;;;;;;1999.90;999.90;;;;;;;31.32;30.97;95278.66;5064618;28;20194;-63
2023/06/17 10:24:31;;;;;;;1999.90;999.90;;;;;;;31.50;30.55;95272.13;5064409;28;20170;-64
2023/06/17 10:27:03;;;;;;;1999.90;999.90;;;;;;;31.05;30.69;95263.72;5064512;28;20189;-64
2023/06/17 10:29:28;;;;;;;1999.90;999.90;;;;;;;32.34;29.15;95267.75;5063966;28;20193;-64
2023/06/17 10:31:53;;;;;;;1999.90;999.90;;;;;;;32.33;29.66;95257.03;5064085;28;20165;-64
2023/06/17 10:34:22;;;;;;;1999.90;999.90;;;;;;;33.17;28.36;95252.28;5064668;28;20170;-63
2023/06/17 10:36:51;;;;;;;1999.90;999.90;;;;;;;31.71;30.19;95265.25;5064298;28;20169;-67
2023/06/17 10:39:16;;;;;;;1999.90;999.90;;;;;;;31.96;29.32;95265.78;5064579;28;20241;-63
2023/06/17 10:41:41;;;;;;;1999.90;999.90;;;;;;;32.45;29.26;95259.00;5063919;28;20189;-63
2023/06/17 10:44:34;;;;;;;1999.90;999.90;;;;;;;33.42;28.45;95259.09;5063971;28;20249;-64
2023/06/17 10:47:01;;;;;;;1999.90;999.90;;;;;;;32.20;28.55;95254.97;5063862;28;20165;-63